createdAt,value
2016-11-14T05:08:55.967Z,94.27
2016-11-14T05:09:36.467Z,94.65
2016-11-14T05:10:16.950Z,94.65
2016-11-14T05:10:57.430Z,94.27
2016-11-14T05:11:37.951Z,94.46
2016-11-14T05:12:18.416Z,94.55
2016-11-14T05:12:58.937Z,94.55
2016-11-14T05:13:39.424Z,94.55
2016-11-14T05:14:19.889Z,94.36
2016-11-14T05:15:00.542Z,94.46
2016-11-14T05:15:41.033Z,94.46
2016-11-14T05:16:21.862Z,94.74
2016-11-14T05:17:02.324Z,94.36
2016-11-14T05:17:42.799Z,94.08
2016-11-14T05:18:23.311Z,94.08
2016-11-14T05:19:03.804Z,94.18
2016-11-14T05:19:44.283Z,93.89
2016-11-14T05:20:24.762Z,94.08
2016-11-14T05:21:05.337Z,93.99
2016-11-14T05:21:46.055Z,93.99
2016-11-14T05:22:26.680Z,93.89
2016-11-14T05:23:07.142Z,93.89
2016-11-14T05:23:48.206Z,93.89
2016-11-14T05:24:29.157Z,94.08
2016-11-14T05:25:09.591Z,93.99
2016-11-14T05:25:50.631Z,93.99
2016-11-14T05:26:31.112Z,93.89
2016-11-14T05:27:11.592Z,93.8
2016-11-14T05:27:52.100Z,93.99
2016-11-14T05:28:33.319Z,94.27
2016-11-14T05:29:13.852Z,94.08
2016-11-14T05:29:54.323Z,94.46
2016-11-14T05:30:34.802Z,94.27
2016-11-14T05:31:15.273Z,94.46
2016-11-14T05:31:55.977Z,94.46
2016-11-14T05:32:36.460Z,94.55
2016-11-14T05:33:16.920Z,94.27
2016-11-14T05:33:57.647Z,94.65
2016-11-14T05:34:38.152Z,94.55
2016-11-14T05:35:18.634Z,94.46
2016-11-14T05:35:59.114Z,94.36
2016-11-14T05:36:39.595Z,94.46
2016-11-14T05:37:20.065Z,94.65
2016-11-14T05:38:00.564Z,94.36
2016-11-14T05:38:41.025Z,94.46
2016-11-14T05:39:21.545Z,94.74
2016-11-14T05:40:01.988Z,94.36
2016-11-14T05:40:42.439Z,94.65
2016-11-14T05:41:22.919Z,94.27
2016-11-14T05:42:03.558Z,94.65
2016-11-14T05:42:44.036Z,94.65
2016-11-14T05:43:24.497Z,94.55
2016-11-14T05:44:04.995Z,94.55
2016-11-14T05:44:45.465Z,94.65
2016-11-14T05:45:25.932Z,94.74
2016-11-14T05:46:06.432Z,94.36
2016-11-14T05:46:46.919Z,94.08
2016-11-14T05:47:27.409Z,94.08
2016-11-14T05:48:07.900Z,93.84
2016-11-14T05:48:48.431Z,94.41
2016-11-14T05:49:28.898Z,94.03
2016-11-14T05:50:09.414Z,93.75
2016-11-14T05:50:49.866Z,93.75
2016-11-14T05:51:30.319Z,93.56
2016-11-14T05:52:10.781Z,93.47
2016-11-14T05:52:51.260Z,93.56
2016-11-14T05:53:31.725Z,93.56
2016-11-14T05:54:12.195Z,93.84
2016-11-14T05:54:52.650Z,93.56
2016-11-14T05:55:33.150Z,93.28
2016-11-14T05:56:13.639Z,93.09
2016-11-14T05:56:54.126Z,93.18
2016-11-14T05:57:34.595Z,93.18
2016-11-14T05:58:15.072Z,93.37
2016-11-14T05:58:55.575Z,93.37
2016-11-14T05:59:36.038Z,93.09
2016-11-14T06:00:16.495Z,93.37
2016-11-14T06:00:56.976Z,93.37
2016-11-14T06:01:37.445Z,92.99
2016-11-14T06:02:17.943Z,93.18
2016-11-14T06:02:58.429Z,93.18
2016-11-14T06:03:38.902Z,93.18
2016-11-14T06:04:19.423Z,93.28
2016-11-14T06:04:59.890Z,93.09
2016-11-14T06:05:40.378Z,92.52
2016-11-14T06:06:20.864Z,92.52
2016-11-14T06:07:01.340Z,92.43
2016-11-14T06:07:41.802Z,92.24
2016-11-14T06:08:22.297Z,92.43
2016-11-14T06:09:02.765Z,92.43
2016-11-14T06:09:43.276Z,92.71
2016-11-14T06:10:23.779Z,92.05
2016-11-14T06:11:04.224Z,92.52
2016-11-14T06:11:44.698Z,92.61
2016-11-14T06:12:25.175Z,92.33
2016-11-14T06:13:05.675Z,92.14
2016-11-14T06:13:46.144Z,92.14
2016-11-14T06:14:26.647Z,91.96
2016-11-14T06:15:07.149Z,92.71
2016-11-14T06:15:47.670Z,92.05
2016-11-14T06:16:28.170Z,92.14
2016-11-14T06:17:08.638Z,92.24
2016-11-14T06:17:49.133Z,92.05
2016-11-14T06:18:29.613Z,91.96
2016-11-14T06:19:10.129Z,91.96
2016-11-14T06:19:50.621Z,91.58
2016-11-14T06:20:31.079Z,91.58
2016-11-14T06:21:11.565Z,91.3
2016-11-14T06:21:52.049Z,91.3
2016-11-14T06:22:32.529Z,91.3
2016-11-14T06:23:13.051Z,91.67
2016-11-14T06:23:53.514Z,91.3
2016-11-14T06:24:33.998Z,91.39
2016-11-14T06:25:14.490Z,91.49
2016-11-14T06:25:54.955Z,91.39
2016-11-14T06:26:35.441Z,91.49
2016-11-14T06:27:15.911Z,91.11
2016-11-14T06:27:56.386Z,91.2
2016-11-14T06:28:36.903Z,91.39
2016-11-14T06:29:17.382Z,91.39
2016-11-14T06:29:57.843Z,91.58
2016-11-14T06:30:38.404Z,91.49
2016-11-14T06:31:18.842Z,91.67
2016-11-14T06:31:59.309Z,91.49
2016-11-14T06:32:39.779Z,91.58
2016-11-14T06:33:20.278Z,91.58
2016-11-14T06:34:00.749Z,91.58
2016-11-14T06:34:41.265Z,91.3
2016-11-14T06:35:21.722Z,90.82
2016-11-14T06:36:02.212Z,91.11
2016-11-14T06:36:42.675Z,90.82
2016-11-14T06:37:23.222Z,91.2
2016-11-14T06:38:03.735Z,91.11
2016-11-14T06:38:44.206Z,90.73
2016-11-14T06:39:24.659Z,90.73
2016-11-14T06:40:05.150Z,90.92
2016-11-14T06:40:45.619Z,90.82
2016-11-14T06:41:26.093Z,90.77
2016-11-14T06:42:06.607Z,90.45
2016-11-14T06:42:47.074Z,90.59
2016-11-14T06:43:27.623Z,90.64
2016-11-14T06:44:08.302Z,89.97
2016-11-14T06:44:48.757Z,90.3
2016-11-14T06:45:29.265Z,90.02
2016-11-14T06:46:09.746Z,90.26
2016-11-14T06:46:50.255Z,90.45
2016-11-14T06:47:30.757Z,89.92
2016-11-14T06:48:11.244Z,90.02
2016-11-14T06:48:51.745Z,90.02
2016-11-14T06:49:32.215Z,89.88
2016-11-14T06:50:12.752Z,90.21
2016-11-14T06:50:53.780Z,89.64
2016-11-14T06:51:34.366Z,89.73
2016-11-14T06:52:15.049Z,89.59
2016-11-14T06:52:55.570Z,89.73
2016-11-14T06:53:36.069Z,90.21
2016-11-14T06:54:16.546Z,89.45
2016-11-14T06:54:57.024Z,89.73
2016-11-14T06:55:37.933Z,89.45
2016-11-14T06:56:18.145Z,89.45
2016-11-14T06:56:58.644Z,89.07
2016-11-14T06:57:39.164Z,89.54
2016-11-14T06:58:19.703Z,89.45
2016-11-14T06:59:00.247Z,89.17
2016-11-14T06:59:40.709Z,88.89
2016-11-14T07:00:21.168Z,89.26
2016-11-14T07:02:38.178Z,89.17
2016-11-14T07:03:22.475Z,88.79
2016-11-14T07:04:02.401Z,88.51
2016-11-14T07:04:42.898Z,88.32
2016-11-14T07:05:23.450Z,88.89
2016-11-14T07:06:03.941Z,88.23
2016-11-14T07:06:44.515Z,88.6
2016-11-14T07:07:24.985Z,88.89
2016-11-14T07:08:05.459Z,89.54
2016-11-14T07:08:45.928Z,89.45
2016-11-14T07:09:26.464Z,89.17
2016-11-14T07:10:06.891Z,89.07
2016-11-14T07:10:47.359Z,88.98
2016-11-14T07:11:27.857Z,89.45
2016-11-14T07:12:08.357Z,89.26
2016-11-14T07:12:48.867Z,88.98
2016-11-14T07:13:29.380Z,88.89
2016-11-14T07:14:09.901Z,89.26
2016-11-14T07:14:50.492Z,89.07
2016-11-14T07:15:31.096Z,89.26
2016-11-14T07:16:11.597Z,89.07
2016-11-14T07:16:52.069Z,89.17
2016-11-14T07:17:32.563Z,89.26
2016-11-14T07:18:13.002Z,89.17
2016-11-14T07:18:53.569Z,89.45
2016-11-14T07:19:34.150Z,89.36
2016-11-14T07:20:14.607Z,88.98
2016-11-14T07:20:55.096Z,88.89
2016-11-14T07:21:35.607Z,88.79
2016-11-14T07:22:16.081Z,89.73
2016-11-14T07:22:56.552Z,89.54
2016-11-14T07:23:37.064Z,89.36
2016-11-14T07:24:17.531Z,89.07
2016-11-14T07:24:58.041Z,89.26
2016-11-14T07:25:38.544Z,89.36
2016-11-14T07:26:19.016Z,88.98
2016-11-14T07:26:59.633Z,88.32
2016-11-14T07:27:40.143Z,88.42
2016-11-14T07:28:20.638Z,88.6
2016-11-14T07:29:01.166Z,88.79
2016-11-14T07:29:41.678Z,87.85
2016-11-14T07:30:22.169Z,89.07
2016-11-14T07:31:02.715Z,88.6
2016-11-14T07:31:43.201Z,88.7
2016-11-14T07:32:23.707Z,88.93
2016-11-14T07:33:04.163Z,88.89
2016-11-14T07:33:44.667Z,88.7
2016-11-14T07:34:25.141Z,88.74
2016-11-14T07:35:05.694Z,88.51
2016-11-14T07:35:46.218Z,88.93
2016-11-14T07:36:26.793Z,88.65
2016-11-14T07:37:09.941Z,88.84
2016-11-14T07:37:50.741Z,88.74
2016-11-14T07:38:31.211Z,88.84
2016-11-14T07:39:18.079Z,88.65
2016-11-14T07:45:51.203Z,88.36
2016-11-14T07:46:38.073Z,88.27
2016-11-14T07:48:58.335Z,87.89
2016-11-14T07:49:38.816Z,88.17
2016-11-14T07:51:17.698Z,88.08
2016-11-14T07:51:58.163Z,88.17
2016-11-14T07:52:38.595Z,88.17
2016-11-14T07:53:19.105Z,87.89
2016-11-14T07:53:59.575Z,87.61
2016-11-14T07:54:40.065Z,87.89
2016-11-14T07:55:20.527Z,88.08
2016-11-14T07:56:01.021Z,88.08
2016-11-14T07:56:41.548Z,87.89
2016-11-14T07:57:21.990Z,87.7
2016-11-14T07:58:02.462Z,87.98
2016-11-14T07:58:43.086Z,88.17
2016-11-14T07:59:23.816Z,88.27
2016-11-14T08:00:04.501Z,88.08
2016-11-14T08:00:45.110Z,87.93
2016-11-14T08:01:25.719Z,87.74
2016-11-14T08:02:06.400Z,87.65
2016-11-14T08:02:47.068Z,87.51
2016-11-14T08:03:27.823Z,88.12
2016-11-14T08:04:10.056Z,87.74
2016-11-14T08:04:54.283Z,87.55
2016-11-14T08:05:35.336Z,87.65
2016-11-14T08:06:15.975Z,87.74
2016-11-14T08:06:56.715Z,87.46
2016-11-14T08:07:37.400Z,87.65
2016-11-14T08:08:18.078Z,87.27
2016-11-14T08:08:58.862Z,87.27
2016-11-14T08:09:40.496Z,87.27
2016-11-14T08:10:21.238Z,87.55
2016-11-14T08:11:01.932Z,87.65
2016-11-14T08:11:42.653Z,87.65
2016-11-14T08:12:23.202Z,87.74
2016-11-14T08:13:03.689Z,87.65
2016-11-14T08:13:44.187Z,87.65
2016-11-14T08:14:24.662Z,87.65
2016-11-14T08:15:05.137Z,87.84
2016-11-14T08:15:45.636Z,87.65
2016-11-14T08:16:26.157Z,87.65
2016-11-14T08:17:06.664Z,88.22
2016-11-14T08:17:47.118Z,88.12
2016-11-14T08:18:27.629Z,88.41
2016-11-14T08:19:08.130Z,88.22
2016-11-14T08:19:48.624Z,87.93
2016-11-14T08:20:29.359Z,87.46
2016-11-14T08:21:09.832Z,87.74
2016-11-14T08:21:52.467Z,87.65
2016-11-14T08:22:32.977Z,87.55
2016-11-14T08:23:13.479Z,87.27
2016-11-14T08:23:53.997Z,87.74
2016-11-14T08:24:34.582Z,87.93
2016-11-14T08:25:15.061Z,87.46
2016-11-14T08:25:55.571Z,87.55
2016-11-14T08:26:36.106Z,87.55
2016-11-14T08:27:16.573Z,87.46
2016-11-14T08:27:57.097Z,87.84
2016-11-14T08:28:37.589Z,87.55
2016-11-14T08:29:18.074Z,87.79
2016-11-14T08:29:58.565Z,87.65
2016-11-14T08:30:39.144Z,87.6
2016-11-14T08:31:19.603Z,87.27
2016-11-14T08:32:00.209Z,87.51
2016-11-14T08:32:40.676Z,87.51
2016-11-14T08:33:21.197Z,87.51
2016-11-14T08:34:01.663Z,87.79
2016-11-14T08:34:42.130Z,87.6
2016-11-14T08:35:22.660Z,86.85
2016-11-14T08:36:03.537Z,87.04
2016-11-14T08:36:45.023Z,87.41
2016-11-14T08:37:25.582Z,87.32
2016-11-14T08:38:06.358Z,87.04
2016-11-14T08:38:47.087Z,87.32
2016-11-14T08:39:27.717Z,87.51
2016-11-14T08:40:08.236Z,87.6
2016-11-14T08:40:48.716Z,87.6
2016-11-14T08:41:29.248Z,87.23
2016-11-14T08:42:09.994Z,86.94
2016-11-14T08:42:50.622Z,87.13
2016-11-14T08:43:31.153Z,86.94
2016-11-14T08:44:11.671Z,87.32
2016-11-14T08:44:52.217Z,87.7
2016-11-14T08:45:32.745Z,87.13
2016-11-14T08:46:13.264Z,86.85
2016-11-14T08:46:53.787Z,86.94
2016-11-14T08:47:34.281Z,86.66
2016-11-14T08:48:14.803Z,86.37
2016-11-14T08:48:55.265Z,86.85
2016-11-14T08:49:35.838Z,86.85
2016-11-14T08:50:16.304Z,86.94
2016-11-14T08:52:09.518Z,86.85
2016-11-14T08:52:52.539Z,86.85
2016-11-14T08:53:34.630Z,86.28
2016-11-14T08:54:15.269Z,87.23
2016-11-14T08:54:55.718Z,86.56
2016-11-14T08:55:36.197Z,86.66
2016-11-14T08:56:16.674Z,86.66
2016-11-14T08:56:57.163Z,86.66
2016-11-14T08:57:37.663Z,87.32
2016-11-14T08:58:18.126Z,86.85
2016-11-14T08:58:58.673Z,87.23
2016-11-14T08:59:39.150Z,87.04
2016-11-14T09:00:19.630Z,86.66
2016-11-14T09:01:00.107Z,86.75
2016-11-14T09:01:40.581Z,86.37
2016-11-14T09:02:21.078Z,86.85
2016-11-14T09:03:01.585Z,86.75
2016-11-14T09:03:42.010Z,86.47
2016-11-14T09:04:22.520Z,86.28
2016-11-14T09:05:03.023Z,86.75
2016-11-14T09:05:43.523Z,87.13
2016-11-14T09:06:24.060Z,87.27
2016-11-14T09:07:04.526Z,87.08
2016-11-14T09:07:45.057Z,86.7
2016-11-14T09:08:25.528Z,86.13
2016-11-14T09:09:06.060Z,86.13
2016-11-14T09:09:46.833Z,86.6
2016-11-14T09:10:27.324Z,86.51
2016-11-14T09:11:07.927Z,86.13
2016-11-14T09:11:48.471Z,86.04
2016-11-14T09:12:28.945Z,86.6
2016-11-14T09:13:09.496Z,86.6
2016-11-14T09:13:49.976Z,86.22
2016-11-14T09:14:30.455Z,86.32
2016-11-14T09:15:10.951Z,86.04
2016-11-14T09:15:51.446Z,85.85
2016-11-14T09:16:31.921Z,85.94
2016-11-14T09:17:12.387Z,86.41
2016-11-14T09:17:52.938Z,86.32
2016-11-14T09:18:33.629Z,86.04
2016-11-14T09:19:14.137Z,86.51
2016-11-14T09:19:54.662Z,85.94
2016-11-14T09:20:35.197Z,85.85
2016-11-14T09:21:15.932Z,85.94
2016-11-14T09:21:56.432Z,86.04
2016-11-14T09:22:36.957Z,85.66
2016-11-14T09:23:17.635Z,85.38
2016-11-14T09:23:58.372Z,86.22
2016-11-14T09:24:39.249Z,85.38
2016-11-14T09:25:19.874Z,86.13
2016-11-14T09:26:01.110Z,85.57
2016-11-14T09:26:41.603Z,85.38
2016-11-14T09:27:22.083Z,85.57
2016-11-14T09:28:02.641Z,85.57
2016-11-14T09:28:43.119Z,85.47
2016-11-14T09:29:24.270Z,86.04
2016-11-14T09:30:04.743Z,85.66
2016-11-14T09:30:45.220Z,85.57
2016-11-14T09:31:25.945Z,85.19
2016-11-14T09:32:06.500Z,85
2016-11-14T09:32:47.062Z,85.09
2016-11-14T09:33:27.569Z,84.9
2016-11-14T09:34:08.044Z,85
2016-11-14T09:34:48.567Z,85.19
2016-11-14T09:35:29.086Z,84.9
2016-11-14T09:36:09.527Z,85.19
2016-11-14T09:36:49.999Z,84.9
2016-11-14T09:37:30.496Z,84.9
2016-11-14T09:38:13.701Z,84.71
2016-11-14T09:38:54.184Z,85
2016-11-14T09:39:34.672Z,84.71
2016-11-14T09:40:15.170Z,85
2016-11-14T09:40:55.796Z,84.9
2016-11-14T09:41:36.463Z,84.71
2016-11-14T09:42:16.947Z,84.52
2016-11-14T09:42:57.466Z,85
2016-11-14T09:43:37.924Z,84.9
2016-11-14T09:44:18.557Z,84.52
2016-11-14T09:44:59.507Z,84.52
2016-11-14T09:45:39.821Z,84.71
2016-11-14T09:46:20.360Z,85.19
2016-11-14T09:47:00.851Z,85.19
2016-11-14T09:47:41.336Z,85
2016-11-14T09:48:21.800Z,84.52
2016-11-14T09:49:02.297Z,84.52
2016-11-14T09:49:42.821Z,84.33
2016-11-14T09:50:23.363Z,84.14
2016-11-14T09:51:03.867Z,84.71
2016-11-14T09:51:44.400Z,84.71
2016-11-14T09:52:24.898Z,85
2016-11-14T09:53:05.386Z,85
2016-11-14T09:53:45.873Z,85
2016-11-14T09:54:26.377Z,84.71
2016-11-14T09:55:06.945Z,84.14
2016-11-14T09:55:49.731Z,84.42
2016-11-14T09:56:30.209Z,84.33
2016-11-14T09:57:10.696Z,84.28
2016-11-14T09:57:51.188Z,83.76
2016-11-14T09:58:31.752Z,84.05
2016-11-14T09:59:12.232Z,83.86
2016-11-14T09:59:52.766Z,84.42
2016-11-14T10:00:35.075Z,84.71
2016-11-14T10:01:15.694Z,84.33
2016-11-14T10:01:56.184Z,84.33
2016-11-14T10:02:36.699Z,84.38
2016-11-14T10:03:17.184Z,84.42
2016-11-14T10:03:59.562Z,84.05
2016-11-14T10:04:40.013Z,84.52
2016-11-14T10:05:20.620Z,84.33
2016-11-14T10:06:01.424Z,84.81
2016-11-14T10:06:41.906Z,84.38
2016-11-14T10:07:22.392Z,83.95
2016-11-14T10:08:02.897Z,84.38
2016-11-14T10:08:43.414Z,84.47
2016-11-14T10:09:24.538Z,84.14
2016-11-14T10:10:08.320Z,84.47
2016-11-14T10:10:48.693Z,84.56
2016-11-14T10:11:29.208Z,84.47
2016-11-14T10:12:09.670Z,85.13
2016-11-14T10:12:50.172Z,84.66
2016-11-14T10:13:30.656Z,83.9
2016-11-14T10:14:11.145Z,84.09
2016-11-14T10:14:51.632Z,83.71
2016-11-14T10:15:34.808Z,83.81
2016-11-14T10:16:15.294Z,84
2016-11-14T10:16:59.469Z,83.62
2016-11-14T10:17:39.924Z,84
2016-11-14T10:18:20.427Z,83.9
2016-11-14T10:19:01.485Z,84
2016-11-14T10:19:41.931Z,83.9
2016-11-14T10:20:22.447Z,83.9
2016-11-14T10:21:02.977Z,83.9
2016-11-14T10:21:43.461Z,84
2016-11-14T10:22:23.930Z,83.9
2016-11-14T10:23:04.447Z,84.47
2016-11-14T10:23:44.908Z,84.38
2016-11-14T10:24:25.397Z,84.66
2016-11-14T10:25:05.926Z,83.9
2016-11-14T10:25:46.399Z,83.71
2016-11-14T10:26:26.956Z,83.9
2016-11-14T10:28:25.239Z,83.81
2016-11-14T10:29:05.513Z,83.71
2016-11-14T10:29:45.987Z,83.9
2016-11-14T10:30:26.485Z,83.71
2016-11-14T10:31:07.045Z,83.62
2016-11-14T10:31:47.530Z,83.81
2016-11-14T10:32:28.031Z,83.71
2016-11-14T10:33:08.537Z,83.71
2016-11-14T10:33:49.017Z,83.43
2016-11-14T10:34:29.499Z,83.9
2016-11-14T10:35:10.023Z,83.43
2016-11-14T10:35:50.553Z,83.52
2016-11-14T10:36:31.059Z,83.52
2016-11-14T10:37:11.520Z,84
2016-11-14T10:37:52.070Z,83.71
2016-11-14T10:38:32.531Z,83.81
2016-11-14T10:39:13.021Z,83.9
2016-11-14T10:39:53.517Z,83.71
2016-11-14T10:40:34.002Z,83.81
2016-11-14T10:41:14.485Z,82.95
2016-11-14T10:41:54.951Z,82.71
2016-11-14T10:42:35.445Z,83.05
2016-11-14T10:43:16.819Z,83.24
2016-11-14T10:43:57.334Z,83.09
2016-11-14T10:44:37.828Z,82.9
2016-11-14T10:45:18.532Z,83.09
2016-11-14T10:45:59.017Z,83.28
2016-11-14T10:46:39.482Z,83.09
2016-11-14T10:47:19.980Z,82.9
2016-11-14T10:48:05.416Z,82.81
2016-11-14T10:48:56.008Z,82.52
2016-11-14T10:49:47.076Z,82.71
2016-11-14T10:50:34.076Z,83
2016-11-14T10:51:14.640Z,83
2016-11-14T10:51:55.103Z,82.71
2016-11-14T10:52:35.767Z,83.28
2016-11-14T10:53:16.430Z,82.52
2016-11-14T10:53:56.896Z,82.62
2016-11-14T10:54:37.362Z,82.52
2016-11-14T10:57:05.864Z,82.05
2016-11-14T10:57:46.205Z,81.86
2016-11-14T10:58:26.678Z,81.76
2016-11-14T10:59:07.167Z,81.86
2016-11-14T10:59:47.654Z,81.86
2016-11-14T11:00:28.103Z,81.76
2016-11-14T11:01:08.634Z,81.86
2016-11-14T11:01:49.186Z,81.95
2016-11-14T11:02:29.698Z,82.24
2016-11-14T11:03:10.263Z,82.43
2016-11-14T11:03:50.785Z,81.95
2016-11-14T11:04:31.303Z,81.76
2016-11-14T11:05:11.783Z,81.67
2016-11-14T11:05:52.287Z,81.76
2016-11-14T11:06:35.013Z,81.76
2016-11-14T11:07:15.493Z,81.67
2016-11-14T11:07:55.979Z,81.01
2016-11-14T11:08:39.539Z,81.48
2016-11-14T11:09:22.466Z,81.76
2016-11-14T11:10:02.595Z,81.1
2016-11-14T11:10:48.011Z,80.53
2016-11-14T11:11:33.106Z,80.72
2016-11-14T11:12:10.601Z,80.63
2016-11-14T11:12:51.093Z,80.91
2016-11-14T11:13:31.578Z,80.91
2016-11-14T11:14:16.162Z,80.95
2016-11-14T11:14:57.354Z,80.67
2016-11-14T11:15:39.775Z,80.29
2016-11-14T11:16:20.689Z,80.1
2016-11-14T11:17:01.249Z,80.19
2016-11-14T11:17:41.748Z,80.67
2016-11-14T11:18:22.202Z,80.38
2016-11-14T11:19:02.715Z,80.29
2016-11-14T11:19:48.995Z,79.25
2016-11-14T11:20:31.670Z,80
2016-11-14T11:21:15.279Z,79.82
2016-11-14T11:21:57.580Z,79.91
2016-11-14T11:22:37.045Z,80.1
2016-11-14T11:23:21.245Z,79.34
2016-11-14T11:24:03.842Z,79.82
2016-11-14T11:24:48.035Z,80.19
2016-11-14T11:25:31.002Z,80.19
2016-11-14T11:26:10.730Z,79.34
2016-11-14T11:26:52.690Z,79.53
2016-11-14T11:27:33.168Z,79.44
2016-11-14T11:28:14.475Z,79.82
2016-11-14T11:28:54.946Z,80
2016-11-14T11:29:37.511Z,80.1
2016-11-14T11:30:19.895Z,79.63
2016-11-14T11:31:04.859Z,80.1
2016-11-14T11:31:43.970Z,80
2016-11-14T11:32:27.016Z,79.44
2016-11-14T11:33:08.477Z,79.25
2016-11-14T11:33:53.525Z,79.63
2016-11-14T11:34:36.815Z,80.1
2016-11-14T11:35:17.196Z,79.91
2016-11-14T11:35:59.911Z,80.1
2016-11-14T11:36:40.551Z,79.91
2016-11-14T11:37:23.039Z,79.63
2016-11-14T11:38:03.609Z,79.53
2016-11-14T11:38:45.823Z,79.25
2016-11-14T11:39:27.823Z,79.63
2016-11-14T11:40:11.270Z,79.34
2016-11-14T11:40:55.631Z,79.34
2016-11-14T11:41:41.885Z,79.34
2016-11-14T11:42:27.766Z,79.63
2016-11-14T11:43:10.048Z,79.44
2016-11-14T11:43:53.330Z,79.44
2016-11-14T11:44:34.267Z,79.63
2016-11-14T11:45:14.849Z,79.34
2016-11-14T11:45:55.326Z,79.53
2016-11-14T11:46:35.780Z,79.63
2016-11-14T11:47:16.266Z,79.44
2016-11-14T11:47:56.737Z,79.53
2016-11-14T11:48:37.227Z,79.53
2016-11-14T11:49:17.788Z,79.44
2016-11-14T11:49:58.541Z,79.15
2016-11-14T11:50:39.125Z,79.15
2016-11-14T11:51:19.583Z,79.15
2016-11-14T11:52:00.092Z,79.15
2016-11-14T11:52:40.590Z,79.15
2016-11-14T11:53:21.066Z,79.63
2016-11-14T11:54:01.691Z,79.72
2016-11-14T11:54:42.218Z,79.15
2016-11-14T11:55:22.775Z,78.96
2016-11-14T11:56:03.263Z,79.25
2016-11-14T11:56:43.851Z,79.15
2016-11-14T11:57:24.356Z,78.96
2016-11-14T11:58:04.864Z,79.82
2016-11-14T11:58:45.331Z,79.53
2016-11-14T11:59:26.017Z,79.15
2016-11-14T12:00:06.590Z,79.15
2016-11-14T12:00:47.070Z,79.15
2016-11-14T12:01:27.562Z,79.06
2016-11-14T12:02:08.052Z,79.06
2016-11-14T12:02:48.572Z,79.82
2016-11-14T12:03:29.079Z,79.25
2016-11-14T12:04:09.539Z,79.34
2016-11-14T12:04:50.211Z,79.06
2016-11-14T12:05:30.676Z,79.15
2016-11-14T12:06:11.215Z,78.92
2016-11-14T12:06:51.691Z,79.49
2016-11-14T12:07:32.157Z,79.34
2016-11-14T12:08:12.654Z,79.11
2016-11-14T12:08:53.132Z,79.58
2016-11-14T12:09:33.684Z,79.96
2016-11-14T12:10:14.214Z,79.63
2016-11-14T12:10:54.824Z,79.25
2016-11-14T12:11:35.338Z,79.15
2016-11-14T12:12:15.848Z,79.58
2016-11-14T12:12:56.339Z,79.44
2016-11-14T12:13:36.824Z,79.72
2016-11-14T12:14:17.312Z,79.21
2016-11-14T12:14:58.124Z,79.34
2016-11-14T12:15:38.599Z,79.72
2016-11-14T12:16:19.101Z,79.15
2016-11-14T12:16:59.585Z,78.49
2016-11-14T12:18:55.731Z,78.49
2016-11-14T12:19:39.748Z,78.67
2016-11-14T12:20:19.942Z,78.87
2016-11-14T12:21:06.044Z,79.06
2016-11-14T12:21:52.616Z,79.15
2016-11-14T12:22:33.162Z,78.49
2016-11-14T12:23:14.229Z,78.3
2016-11-14T12:23:54.798Z,78.49
2016-11-14T12:24:35.331Z,78.2
2016-11-14T12:25:15.799Z,78.2
2016-11-14T12:25:56.352Z,78.49
2016-11-14T12:26:36.876Z,78.49
2016-11-14T12:27:17.367Z,78.77
2016-11-14T12:27:57.860Z,78.3
2016-11-14T12:28:38.368Z,78.39
2016-11-14T12:29:19.381Z,78.87
2016-11-14T12:29:59.845Z,78.67
2016-11-14T12:30:40.339Z,78.26
2016-11-14T12:31:21.897Z,78.54
2016-11-14T12:32:02.455Z,78.64
2016-11-14T12:32:43.581Z,79.15
2016-11-14T12:33:24.133Z,79.02
2016-11-14T12:34:06.943Z,78.58
2016-11-14T12:34:46.889Z,78.87
2016-11-14T12:35:29.436Z,78.92
2016-11-14T12:36:09.921Z,78.77
2016-11-14T12:36:50.382Z,78.35
2016-11-14T12:37:30.886Z,78.67
2016-11-14T12:38:12.129Z,78.67
2016-11-14T12:40:43.851Z,78.49
2016-11-14T12:41:24.309Z,78.39
2016-11-14T12:42:04.818Z,78.2
2016-11-14T12:42:45.335Z,78.58
2016-11-14T12:43:25.806Z,78.35
2016-11-14T12:44:06.340Z,78.64
2016-11-14T12:44:46.824Z,78.83
2016-11-14T12:45:27.330Z,79.49
2016-11-14T12:46:07.821Z,79.21
2016-11-14T12:46:48.360Z,79.49
2016-11-14T12:47:28.905Z,79.49
2016-11-14T12:48:09.434Z,79.49
2016-11-14T12:48:49.917Z,79.49
2016-11-14T12:49:30.375Z,79.58
2016-11-14T12:50:10.846Z,79.49
2016-11-14T12:50:51.380Z,79.49
2016-11-14T12:51:31.888Z,79.63
2016-11-14T12:52:12.389Z,79.49
2016-11-14T12:52:52.887Z,79.58
2016-11-14T12:53:33.377Z,79.58
2016-11-14T12:54:13.904Z,79.58
2016-11-14T12:54:54.388Z,79.53
2016-11-14T12:55:34.934Z,79.39
2016-11-14T12:56:15.482Z,79.49
2016-11-14T12:56:56.141Z,79.58
2016-11-14T12:57:36.608Z,79.58
2016-11-14T12:58:17.172Z,79.11
2016-11-14T12:58:57.684Z,78.92
2016-11-14T12:59:38.376Z,79.02
2016-11-14T13:00:18.971Z,79.11
2016-11-14T13:00:59.441Z,79.58
2016-11-14T13:01:39.896Z,79.11
2016-11-14T13:02:20.408Z,79.02
2016-11-14T13:03:00.892Z,79.25
2016-11-14T13:03:41.370Z,78.92
2016-11-14T13:04:21.958Z,79.11
2016-11-14T13:05:02.449Z,78.92
2016-11-14T13:05:43.122Z,79.02
2016-11-14T13:06:23.666Z,79.77
2016-11-14T13:07:04.163Z,79.87
2016-11-14T13:07:44.771Z,79.25
2016-11-14T13:08:25.278Z,78.64
2016-11-14T13:09:05.796Z,78.26
2016-11-14T13:09:46.248Z,78.26
2016-11-14T13:10:26.756Z,77.88
2016-11-14T13:11:07.301Z,77.59
2016-11-14T13:11:47.785Z,77.4
2016-11-14T13:12:28.316Z,76.84
2016-11-14T13:13:08.865Z,77.12
2016-11-14T13:13:49.455Z,76.93
2016-11-14T13:14:29.943Z,77.22
2016-11-14T13:15:10.501Z,77.88
2016-11-14T13:15:50.990Z,77.69
2016-11-14T13:16:31.565Z,77.5
2016-11-14T13:17:12.071Z,76.84
2016-11-14T13:17:52.542Z,77.31
2016-11-14T13:18:33.013Z,77.12
2016-11-14T13:19:15.515Z,76.84
2016-11-14T13:19:55.983Z,76.27
2016-11-14T13:20:36.440Z,76.27
2016-11-14T13:21:16.936Z,76.27
2016-11-14T13:21:57.436Z,76.17
2016-11-14T13:22:37.897Z,76.74
2016-11-14T13:23:18.372Z,76.55
2016-11-14T13:24:00.772Z,76.74
2016-11-14T13:24:41.281Z,76.84
2016-11-14T13:25:21.778Z,76.55
2016-11-14T13:26:02.320Z,76.55
2016-11-14T13:26:43.022Z,76.65
2016-11-14T13:27:23.730Z,76.84
2016-11-14T13:28:05.029Z,76.17
2016-11-14T13:28:45.616Z,76.27
2016-11-14T13:29:26.112Z,76.74
2016-11-14T13:30:06.613Z,76.55
2016-11-14T13:30:47.123Z,76.93
2016-11-14T13:31:27.634Z,76.84
2016-11-14T13:32:08.143Z,76.84
2016-11-14T13:32:48.633Z,76.84
2016-11-14T13:33:29.141Z,76.74
2016-11-14T13:34:09.620Z,76.84
2016-11-14T13:34:50.117Z,76.46
2016-11-14T13:35:30.617Z,76.65
2016-11-14T13:36:12.774Z,76.74
2016-11-14T13:36:53.279Z,76.93
2016-11-14T13:37:34.086Z,77.03
2016-11-14T13:38:14.643Z,77.22
2016-11-14T13:38:55.099Z,77.31
2016-11-14T13:39:35.735Z,77.12
2016-11-14T13:40:16.240Z,77.31
2016-11-14T13:40:56.755Z,77.12
2016-11-14T13:41:37.234Z,77.22
2016-11-14T13:42:17.814Z,76.84
2016-11-14T13:42:58.306Z,76.46
2016-11-14T13:43:40.662Z,76.65
2016-11-14T13:44:20.471Z,76.65
2016-11-14T13:45:02.189Z,76.84
2016-11-14T13:45:42.692Z,76.74
2016-11-14T13:46:23.242Z,76.84
2016-11-14T13:47:03.791Z,76.84
2016-11-14T13:47:45.448Z,77.12
2016-11-14T13:48:25.950Z,77.03
2016-11-14T13:49:06.438Z,77.03
2016-11-14T13:49:46.995Z,76.84
2016-11-14T13:50:27.489Z,77.03
2016-11-14T13:51:08.202Z,76.84
2016-11-14T13:51:48.764Z,76.74
2016-11-14T13:52:29.664Z,77.03
2016-11-14T13:53:10.310Z,76.74
2016-11-14T13:53:50.888Z,76.65
2016-11-14T13:54:31.379Z,76.17
2016-11-14T13:55:11.848Z,76.55
2016-11-14T13:55:52.364Z,76.74
2016-11-14T13:56:32.958Z,77.03
2016-11-14T13:57:13.618Z,76.93
2016-11-14T13:57:54.059Z,76.65
2016-11-14T13:58:34.535Z,76.36
2016-11-14T13:59:17.333Z,77.03
2016-11-14T13:59:57.848Z,76.55
2016-11-14T14:00:38.302Z,76.65
2016-11-14T14:01:23.145Z,76.74
2016-11-14T14:02:07.378Z,76.65
2016-11-14T14:02:50.640Z,77.22
2016-11-14T14:03:34.558Z,76.74
2016-11-14T14:04:21.365Z,76.93
2016-11-14T14:05:07.317Z,76.65
2016-11-14T14:05:53.396Z,76.93
2016-11-14T14:06:36.432Z,76.93
2016-11-14T14:07:20.998Z,76.74
2016-11-14T14:08:02.156Z,77.31
2016-11-14T14:08:43.062Z,77.59
2016-11-14T14:09:23.530Z,77.5
2016-11-14T14:10:04.154Z,78.45
2016-11-14T14:10:45.388Z,77.78
2016-11-14T14:11:25.861Z,78.45
2016-11-14T14:12:06.432Z,78.35
2016-11-14T14:12:46.897Z,77.88
2016-11-14T14:13:27.424Z,78.92
2016-11-14T14:14:07.876Z,79.02
2016-11-14T14:14:48.388Z,79.21